Time;durP1;ratioP1;P1;durP2;ratioP2;P2;SDS_P1;SDS_P2;PMS_P1;PMS_P2;Temp;Humidity;BMP_temperature;BMP_pressure;BME280_temperature;BME280_humidity;BME280_pressure;Samples;Min_cycle;Max_cycle;Signal;HPM_P1;HPM_P2
2022/10/21 00:00:29;;;;;;;23.80;13.80;;;;;;;18.23;64.33;98503.13;6890297;28;20232;-77
2022/10/21 00:03:50;;;;;;;21.33;13.23;;;;;;;18.81;63.08;98500.25;6890948;28;20707;-77
2022/10/21 00:07:13;;;;;;;23.03;13.93;;;;;;;18.60;63.77;98506.72;6890780;28;20262;-77
2022/10/21 00:10:35;;;;;;;22.57;14.23;;;;;;;18.86;62.98;98507.69;6892045;28;20244;-77
2022/10/21 00:13:56;;;;;;;21.90;13.23;;;;;;;18.62;62.74;98498.22;6939244;28;20326;-77
2022/10/21 00:17:18;;;;;;;17.60;13.03;;;;;;;18.54;62.91;98510.50;6944911;28;20330;-77
2022/10/21 00:20:40;;;;;;;16.37;13.00;;;;;;;18.54;63.54;98502.31;6944945;28;20236;-77
2022/10/21 00:24:03;;;;;;;21.07;12.90;;;;;;;17.55;66.05;98489.41;6945582;28;20209;-77
2022/10/21 00:27:24;;;;;;;21.47;13.97;;;;;;;18.09;65.54;98495.63;6945435;28;20211;-76
2022/10/21 00:30:46;;;;;;;23.03;13.70;;;;;;;17.87;64.54;98465.72;6944679;28;20225;-77
2022/10/21 00:34:07;;;;;;;20.10;13.77;;;;;;;18.17;64.93;98503.34;6945814;28;20210;-77
2022/10/21 00:37:29;;;;;;;16.63;12.63;;;;;;;18.57;63.50;98506.41;6949360;28;20266;-77
2022/10/21 00:40:52;;;;;;;19.67;12.93;;;;;;;18.45;63.44;98505.78;6948936;28;20662;-77
2022/10/21 00:44:15;;;;;;;19.10;13.00;;;;;;;17.81;64.50;98493.22;6948749;28;20337;-77
2022/10/21 00:47:41;;;;;;;23.13;12.57;;;;;;;17.17;67.08;98505.84;6949281;28;21013;-77
2022/10/21 00:51:06;;;;;;;19.40;13.30;;;;;;;17.79;65.63;98493.47;6950034;28;20318;-77
2022/10/21 00:54:29;;;;;;;21.67;13.57;;;;;;;18.13;64.74;98494.03;6949038;28;20207;-79
2022/10/21 00:57:52;;;;;;;20.63;13.50;;;;;;;18.11;64.84;98490.75;6948722;28;20207;-77
2022/10/21 01:01:14;;;;;;;18.23;12.33;;;;;;;17.97;64.95;98498.53;6949368;28;20333;-77
2022/10/21 01:04:36;;;;;;;25.40;12.53;;;;;;;18.13;64.78;98507.69;6948988;28;20239;-77
2022/10/21 01:07:57;;;;;;;21.73;13.47;;;;;;;18.06;64.66;98513.38;6949208;28;20767;-77
2022/10/21 01:11:19;;;;;;;21.80;13.33;;;;;;;18.26;64.65;98518.16;6949392;28;20638;-77
2022/10/21 01:14:48;;;;;;;19.73;12.10;;;;;;;18.48;63.07;98476.06;6949679;28;20278;-77
2022/10/21 01:18:13;;;;;;;23.77;12.70;;;;;;;18.42;63.81;98517.22;6948387;28;20274;-77
2022/10/21 01:21:38;;;;;;;17.10;13.13;;;;;;;18.74;62.23;98527.00;6948772;28;20288;-77
2022/10/21 01:25:19;;;;;;;22.03;13.23;;;;;;;18.03;64.09;98515.78;6949161;28;20303;-77
2022/10/21 01:28:50;;;;;;;21.20;13.47;;;;;;;17.80;64.88;98483.41;6947426;28;20593;-77
2022/10/21 01:32:18;;;;;;;22.87;14.00;;;;;;;18.18;65.01;98497.66;6930426;28;20695;-77
2022/10/21 01:35:46;;;;;;;16.83;11.27;;;;;;;18.38;63.36;98508.75;6894479;28;20783;-76
2022/10/21 01:39:15;;;;;;;17.40;11.77;;;;;;;17.71;63.77;98495.84;6892863;28;20624;-77
2022/10/21 01:42:40;;;;;;;21.60;11.43;;;;;;;18.13;63.33;98500.31;6894089;28;20365;-77
2022/10/21 01:46:04;;;;;;;21.77;12.27;;;;;;;17.44;65.32;98489.56;6893055;28;20193;-77
2022/10/21 01:49:30;;;;;;;15.97;12.03;;;;;;;17.50;65.24;98480.34;6893467;28;20215;-77
2022/10/21 01:52:56;;;;;;;21.67;12.27;;;;;;;18.06;64.35;98497.00;6894202;28;20727;-77
2022/10/21 01:56:18;;;;;;;17.70;12.27;;;;;;;18.01;64.44;98496.13;6894274;28;20227;-77
2022/10/21 01:59:41;;;;;;;15.73;11.50;;;;;;;18.12;64.42;98495.13;6892572;28;20315;-77
2022/10/21 02:03:05;;;;;;;22.30;12.50;;;;;;;17.99;64.15;98507.28;6892809;28;20223;-77
2022/10/21 02:06:28;;;;;;;19.00;12.33;;;;;;;17.06;67.53;98508.69;6892551;28;20299;-77
2022/10/21 02:09:49;;;;;;;21.10;13.97;;;;;;;16.91;68.22;98511.22;6891974;28;20230;-77
2022/10/21 02:13:12;;;;;;;18.93;14.13;;;;;;;17.43;68.30;98501.53;6916524;28;20786;-77
2022/10/21 02:16:37;;;;;;;18.50;12.40;;;;;;;18.05;66.05;98491.78;6919573;28;20277;-76
2022/10/21 02:20:00;;;;;;;18.10;11.50;;;;;;;18.29;64.52;98514.91;6919227;28;20319;-77
2022/10/21 02:23:28;;;;;;;15.40;11.73;;;;;;;18.27;63.99;98485.16;6919653;28;20721;-77
2022/10/21 02:26:50;;;;;;;20.97;10.77;;;;;;;17.76;64.45;98483.06;6920326;28;20280;-77
2022/10/21 02:30:12;;;;;;;19.67;11.40;;;;;;;17.51;66.74;98466.47;6919162;28;20281;-77
2022/10/21 02:33:41;;;;;;;20.90;10.93;;;;;;;17.95;65.71;98448.91;6920460;28;20246;-77
2022/10/21 02:37:09;;;;;;;14.23;10.93;;;;;;;18.01;65.53;98455.19;6920105;28;20279;-77
2022/10/21 02:40:35;;;;;;;18.37;10.93;;;;;;;17.80;65.25;98432.38;6919449;28;20232;-76
2022/10/21 02:43:58;;;;;;;13.63;10.67;;;;;;;17.78;66.26;98395.53;6919896;28;20690;-76
2022/10/21 02:47:20;;;;;;;14.93;11.03;;;;;;;18.17;65.43;98418.75;6919172;28;20214;-76
2022/10/21 02:50:41;;;;;;;16.07;11.80;;;;;;;18.18;65.18;98402.13;6918951;28;20364;-77
2022/10/21 02:54:03;;;;;;;19.50;12.43;;;;;;;17.44;67.97;98399.59;6919758;28;20211;-77
2022/10/21 02:57:26;;;;;;;21.40;11.50;;;;;;;18.16;66.59;98393.38;6919007;28;20693;-77
2022/10/21 03:00:47;;;;;;;12.87;11.10;;;;;;;18.43;65.41;98396.84;6918589;28;20233;-76
2022/10/21 03:04:09;;;;;;;14.00;8.93;;;;;;;18.27;65.05;98370.53;6919271;28;20287;-77
2022/10/21 03:07:30;;;;;;;15.53;9.47;;;;;;;18.54;64.56;98389.53;6919089;28;20681;-77
2022/10/21 03:10:52;;;;;;;15.30;9.30;;;;;;;18.49;64.34;98365.75;6919253;28;20566;-77
2022/10/21 03:14:15;;;;;;;18.00;10.97;;;;;;;18.62;64.26;98361.69;6918934;28;20260;-76
2022/10/21 03:17:37;;;;;;;11.50;9.33;;;;;;;18.66;63.54;98369.13;6918660;28;20210;-76
2022/10/21 03:20:58;;;;;;;16.67;9.40;;;;;;;18.48;63.34;98364.13;6918994;28;20369;-76
2022/10/21 03:24:20;;;;;;;15.77;8.50;;;;;;;18.57;63.45;98367.97;6918905;28;20303;-76
2022/10/21 03:27:41;;;;;;;14.77;9.07;;;;;;;18.34;64.72;98340.31;6917954;28;20207;-76
2022/10/21 03:31:04;;;;;;;11.67;8.83;;;;;;;18.58;64.04;98330.56;6918437;28;20310;-77
2022/10/21 03:34:26;;;;;;;11.43;7.53;;;;;;;18.38;65.49;98346.84;6918836;28;20203;-77
2022/10/21 03:37:47;;;;;;;16.67;8.97;;;;;;;18.24;65.16;98326.56;6918282;28;20211;-77
2022/10/21 03:41:09;;;;;;;11.27;8.27;;;;;;;18.67;64.69;98342.59;6919015;28;20235;-77
2022/10/21 03:44:30;;;;;;;11.97;8.80;;;;;;;18.63;64.74;98327.88;6918330;28;20346;-76
2022/10/21 03:47:53;;;;;;;13.33;8.73;;;;;;;18.71;64.84;98321.88;6917291;28;20207;-76
2022/10/21 03:51:15;;;;;;;15.23;8.93;;;;;;;18.76;65.20;98352.75;6918674;28;20338;-77
2022/10/21 03:54:36;;;;;;;13.90;8.20;;;;;;;18.15;66.82;98328.97;6918429;28;20219;-76
2022/10/21 03:57:57;;;;;;;11.10;8.00;;;;;;;18.57;67.04;98318.81;6917797;28;20665;-76
2022/10/21 04:01:19;;;;;;;16.50;8.60;;;;;;;18.82;66.04;98326.28;6918200;28;20232;-77
2022/10/21 04:04:42;;;;;;;15.87;8.47;;;;;;;18.70;66.12;98325.69;6917900;28;20207;-76
2022/10/21 04:08:03;;;;;;;11.53;8.23;;;;;;;18.99;65.49;98316.75;6917743;28;20286;-77
2022/10/21 04:11:25;;;;;;;12.50;8.40;;;;;;;19.33;64.52;98323.38;6923246;28;20310;-77
2022/10/21 04:14:46;;;;;;;12.40;7.50;;;;;;;19.62;63.47;98315.44;6950646;28;20682;-76
2022/10/21 04:18:08;;;;;;;12.13;7.80;;;;;;;19.51;63.51;98302.91;6950751;28;20299;-76
2022/10/21 04:21:31;;;;;;;15.93;8.57;;;;;;;19.59;63.50;98286.75;6900348;28;20236;-76
2022/10/21 04:24:52;;;;;;;12.83;7.67;;;;;;;19.79;63.08;98288.63;6950049;28;20298;-77
2022/10/21 04:28:14;;;;;;;12.30;8.03;;;;;;;19.77;63.20;98294.41;6949432;28;20743;-77
2022/10/21 04:31:35;;;;;;;12.47;7.83;;;;;;;19.65;63.05;98276.63;6948795;28;20227;-76
2022/10/21 04:34:57;;;;;;;15.80;8.50;;;;;;;19.23;64.14;98282.38;6951856;28;20191;-77
2022/10/21 04:38:20;;;;;;;16.13;8.90;;;;;;;18.50;65.36;98238.25;6950373;28;20203;-77
2022/10/21 04:41:43;;;;;;;14.13;8.73;;;;;;;19.40;63.61;98276.66;6949609;28;20292;-76
2022/10/21 04:45:05;;;;;;;13.80;8.20;;;;;;;19.51;62.78;98268.16;6950187;28;20286;-77
2022/10/21 04:48:26;;;;;;;16.23;9.33;;;;;;;19.07;63.93;98263.47;6949795;28;20445;-76
2022/10/21 04:51:48;;;;;;;13.60;9.00;;;;;;;19.05;64.04;98260.22;6950162;28;20231;-76
2022/10/21 04:55:11;;;;;;;15.80;9.20;;;;;;;18.46;66.37;98276.19;6924287;28;20783;-76
2022/10/21 04:58:32;;;;;;;13.83;9.47;;;;;;;18.36;67.43;98286.25;6921860;28;20298;-77
2022/10/21 05:01:54;;;;;;;14.90;9.67;;;;;;;18.53;67.10;98271.31;6923655;28;20239;-76
2022/10/21 05:05:15;;;;;;;14.80;10.27;;;;;;;18.97;65.48;98272.50;6919980;28;20729;-76
2022/10/21 05:08:37;;;;;;;18.60;10.43;;;;;;;18.99;65.31;98277.69;6894439;28;20295;-76
2022/10/21 05:12:00;;;;;;;12.77;9.50;;;;;;;18.71;66.19;98272.72;6894378;28;20229;-76
2022/10/21 05:15:21;;;;;;;17.10;10.17;;;;;;;18.62;66.30;98247.00;6895134;28;20291;-78
2022/10/21 05:18:43;;;;;;;13.70;9.90;;;;;;;18.63;66.65;98287.72;6911404;28;20291;-76
2022/10/21 05:22:04;;;;;;;13.43;9.90;;;;;;;19.00;65.64;98265.66;6909169;28;20323;-76
2022/10/21 05:25:26;;;;;;;19.70;9.77;;;;;;;18.74;67.06;98277.66;6917978;28;20237;-76
2022/10/21 05:28:49;;;;;;;17.67;10.63;;;;;;;19.09;65.78;98277.69;6909586;28;20211;-76
2022/10/21 05:32:10;;;;;;;14.90;9.93;;;;;;;18.76;66.32;98254.41;6932254;28;20305;-76
2022/10/21 05:35:32;;;;;;;14.37;9.87;;;;;;;18.76;66.66;98259.88;6903876;28;20737;-76
2022/10/21 05:38:53;;;;;;;20.27;10.80;;;;;;;18.90;66.64;98274.69;6907147;28;20639;-76
2022/10/21 05:42:15;;;;;;;16.30;10.80;;;;;;;19.17;65.40;98250.63;6917546;28;20236;-76
2022/10/21 05:45:37;;;;;;;13.03;10.17;;;;;;;19.04;66.54;98272.25;6916107;28;20206;-79
2022/10/21 05:48:59;;;;;;;18.23;11.00;;;;;;;19.27;66.27;98252.59;6904040;28;20678;-75
2022/10/21 05:52:20;;;;;;;17.57;10.63;;;;;;;19.44;65.85;98272.25;6894962;28;20262;-76
2022/10/21 05:55:42;;;;;;;16.17;10.33;;;;;;;19.27;66.04;98267.06;6894227;28;20253;-77
2022/10/21 05:59:03;;;;;;;14.60;10.20;;;;;;;19.02;66.67;98247.06;6919945;28;20623;-76
2022/10/21 06:02:26;;;;;;;11.57;7.00;;;;;;;19.57;65.87;98269.00;6903343;28;20235;-77
2022/10/21 06:05:48;;;;;;;12.97;5.90;;;;;;;19.78;65.69;98281.50;6921672;28;20724;-76
2022/10/21 06:09:09;;;;;;;12.80;5.93;;;;;;;20.01;65.11;98275.44;6920942;28;20295;-78
2022/10/21 06:12:31;;;;;;;9.33;4.87;;;;;;;20.09;64.49;98263.94;6921784;28;20227;-77
2022/10/21 06:15:52;;;;;;;10.80;5.17;;;;;;;20.26;64.02;98278.13;6917766;28;20203;-78
2022/10/21 06:19:15;;;;;;;11.20;5.37;;;;;;;20.37;63.72;98275.09;6894292;28;20837;-77
2022/10/21 06:22:37;;;;;;;13.73;6.73;;;;;;;20.35;63.67;98257.28;6914925;28;20228;-78
2022/10/21 06:26:00;;;;;;;15.07;5.80;;;;;;;20.50;63.26;98266.25;6921015;28;20303;-78
2022/10/21 06:29:22;;;;;;;7.83;5.20;;;;;;;20.64;62.81;98274.69;6919470;28;20250;-79
2022/10/21 06:32:43;;;;;;;9.60;6.10;;;;;;;20.65;62.83;98279.06;6894212;28;20205;-78
2022/10/21 06:36:07;;;;;;;10.30;6.30;;;;;;;20.67;62.40;98264.78;6910170;28;20202;-78
2022/10/21 06:39:29;;;;;;;11.27;6.23;;;;;;;20.35;63.74;98284.66;6908249;28;20222;-78
2022/10/21 06:42:50;;;;;;;9.73;6.63;;;;;;;20.58;63.34;98292.25;6896105;28;20255;-78
2022/10/21 06:46:13;;;;;;;11.10;6.57;;;;;;;20.66;63.12;98280.69;6920425;28;20212;-78
2022/10/21 06:49:35;;;;;;;12.80;6.30;;;;;;;20.41;64.08;98292.56;6920083;28;20307;-78
2022/10/21 06:52:58;;;;;;;13.57;8.23;;;;;;;20.45;63.98;98301.06;6903394;28;20299;-78
2022/10/21 06:56:19;;;;;;;14.23;7.47;;;;;;;20.58;63.54;98312.22;6903173;28;20205;-78
2022/10/21 06:59:41;;;;;;;11.23;8.07;;;;;;;20.66;63.06;98308.09;6901872;28;20228;-77
2022/10/21 07:03:02;;;;;;;15.33;8.33;;;;;;;20.15;64.75;98312.09;6919567;28;20309;-76
2022/10/21 07:06:24;;;;;;;11.53;8.47;;;;;;;20.52;63.73;98309.81;6893017;28;20204;-77
2022/10/21 07:09:47;;;;;;;16.43;9.40;;;;;;;20.40;63.51;98326.53;6892389;28;20232;-77
2022/10/21 07:13:09;;;;;;;14.03;8.43;;;;;;;20.21;64.64;98346.56;6893708;28;20740;-78
2022/10/21 07:16:32;;;;;;;15.03;7.60;;;;;;;19.93;66.33;98350.72;6903035;28;20297;-78
2022/10/21 07:19:53;;;;;;;14.00;8.47;;;;;;;19.36;68.29;98342.00;6919442;28;20718;-78
2022/10/21 07:23:15;;;;;;;10.17;6.13;;;;;;;19.99;67.11;98335.91;6920185;28;20232;-77
2022/10/21 07:26:38;;;;;;;15.83;7.50;;;;;;;20.49;65.19;98326.78;6920350;28;20350;-77
2022/10/21 07:29:59;;;;;;;21.53;11.23;;;;;;;20.28;65.16;98317.00;6919357;28;20315;-77
2022/10/21 07:33:21;;;;;;;13.83;9.57;;;;;;;20.58;64.27;98327.84;6944500;28;20722;-77
2022/10/21 07:36:46;;;;;;;14.23;8.20;;;;;;;20.38;64.57;98306.00;6946662;28;20252;-77
2022/10/21 07:40:10;;;;;;;14.93;8.63;;;;;;;19.78;66.72;98300.66;6945997;28;20726;-77
2022/10/21 07:43:33;;;;;;;11.40;5.90;;;;;;;20.24;65.89;98269.38;6946626;28;20227;-77
2022/10/21 07:46:55;;;;;;;10.13;5.50;;;;;;;20.59;64.53;98264.56;6951673;28;20690;-77
2022/10/21 07:50:16;;;;;;;14.07;5.70;;;;;;;20.74;64.40;98291.88;6955481;28;20226;-77
2022/10/21 07:53:39;;;;;;;13.67;9.20;;;;;;;20.64;64.42;98310.28;6938218;28;20703;-77
2022/10/21 07:57:00;;;;;;;13.13;6.33;;;;;;;19.87;66.28;98316.25;6925770;28;20302;-78
2022/10/21 08:00:23;;;;;;;14.40;7.47;;;;;;;20.06;66.53;98332.91;6923036;28;20227;-77
2022/10/21 08:03:45;;;;;;;12.57;7.57;;;;;;;20.50;65.62;98339.38;6923229;28;20250;-77
2022/10/21 08:07:06;;;;;;;12.90;7.37;;;;;;;19.39;69.05;98348.84;6922349;28;20212;-77
2022/10/21 08:10:28;;;;;;;9.87;6.73;;;;;;;19.39;70.23;98344.16;6922673;28;20330;-77
2022/10/21 08:13:49;;;;;;;12.10;6.27;;;;;;;20.07;67.83;98310.78;6923458;28;20204;-77
2022/10/21 08:17:12;;;;;;;18.60;8.60;;;;;;;20.57;65.85;98342.66;6923270;28;20708;-77
2022/10/21 08:20:34;;;;;;;14.97;6.83;;;;;;;20.65;65.29;98326.47;6922776;28;20386;-78
2022/10/21 08:23:55;;;;;;;12.20;5.27;;;;;;;20.78;65.05;98307.47;6923353;28;20367;-77
2022/10/21 08:27:17;;;;;;;12.87;5.13;;;;;;;20.75;64.64;98323.66;6901541;28;20347;-77
2022/10/21 08:30:38;;;;;;;8.03;5.13;;;;;;;21.06;64.07;98302.41;6894529;28;20327;-77
2022/10/21 08:34:01;;;;;;;7.80;4.60;;;;;;;21.01;63.68;98292.31;6896186;28;20291;-77
2022/10/21 08:37:23;;;;;;;7.80;4.27;;;;;;;21.12;63.10;98288.38;6895874;28;20209;-77
2022/10/21 08:40:46;;;;;;;7.33;4.13;;;;;;;21.13;63.22;98279.84;6896245;28;20374;-77
2022/10/21 08:44:26;;;;;;;9.17;4.57;;;;;;;21.35;62.50;98296.69;6896516;28;20228;-77
2022/10/21 08:47:51;;;;;;;11.60;5.10;;;;;;;20.83;64.39;98274.56;6895477;28;20286;-77
2022/10/21 08:51:21;;;;;;;8.03;5.10;;;;;;;21.02;64.58;98282.13;6894921;28;20223;-77
2022/10/21 08:54:46;;;;;;;14.77;7.60;;;;;;;20.95;64.76;98267.94;6896213;28;20252;-77
2022/10/21 08:58:13;;;;;;;11.03;5.70;;;;;;;20.70;65.79;98238.72;6895113;28;20228;-76
2022/10/21 09:01:40;;;;;;;6.00;4.60;;;;;;;21.14;64.36;98251.34;6899414;28;20265;-78
2022/10/21 09:05:22;;;;;;;9.90;6.80;;;;;;;20.86;65.53;98259.47;6899280;28;20295;-78
2022/10/21 09:08:55;;;;;;;15.57;7.10;;;;;;;21.20;64.50;98263.09;6898186;28;20215;-78
2022/10/21 09:12:23;;;;;;;17.23;14.27;;;;;;;21.10;64.94;98296.06;6897729;28;20220;-78
2022/10/21 09:16:04;;;;;;;23.13;15.70;;;;;;;20.93;65.07;98323.03;6896386;28;20232;-80
2022/10/21 09:19:35;;;;;;;17.97;13.87;;;;;;;20.96;64.93;98346.31;6895674;28;20351;-78
2022/10/21 09:23:03;;;;;;;11.23;6.93;;;;;;;20.70;65.19;98342.84;6895476;28;20228;-81
2022/10/21 09:26:36;;;;;;;12.47;9.07;;;;;;;20.47;66.39;98367.34;6910832;28;20204;-78
2022/10/21 09:30:00;;;;;;;13.37;8.47;;;;;;;20.56;65.77;98365.63;6928134;28;20251;-78
2022/10/21 09:33:23;;;;;;;9.70;7.47;;;;;;;20.91;65.62;98382.78;6922090;28;20261;-78
2022/10/21 09:36:47;;;;;;;11.73;7.27;;;;;;;21.01;64.73;98381.94;6921967;28;20259;-77
2022/10/21 09:40:15;;;;;;;11.73;7.17;;;;;;;21.16;64.83;98390.88;6921341;28;20262;-78
2022/10/21 09:43:38;;;;;;;11.13;6.93;;;;;;;21.28;64.29;98372.16;6920142;28;20434;-76
2022/10/21 09:47:00;;;;;;;11.97;7.00;;;;;;;21.24;65.02;98393.84;6914429;28;20224;-79
2022/10/21 09:50:21;;;;;;;8.90;5.20;;;;;;;21.60;64.02;98384.28;6915270;28;20318;-78
2022/10/21 09:53:46;;;;;;;10.80;4.60;;;;;;;21.72;63.17;98371.03;6922049;28;20254;-76
2022/10/21 09:57:13;;;;;;;6.23;3.60;;;;;;;21.74;62.20;98370.75;6921533;28;20216;-77
2022/10/21 10:00:45;;;;;;;4.57;3.47;;;;;;;21.95;62.88;98364.00;6921255;28;20238;-79
2022/10/21 10:04:11;;;;;;;8.83;4.00;;;;;;;22.20;61.80;98380.22;6921770;28;20282;-78
2022/10/21 10:07:35;;;;;;;7.90;3.60;;;;;;;22.38;60.67;98382.25;6921724;28;20215;-79
2022/10/21 10:11:05;;;;;;;7.33;3.33;;;;;;;22.51;59.75;98378.81;6921220;28;20319;-79
2022/10/21 10:14:32;;;;;;;8.63;3.73;;;;;;;22.60;60.35;98393.56;6921068;28;20272;-77
2022/10/21 10:17:56;;;;;;;6.30;3.53;;;;;;;22.61;60.84;98398.75;6920510;28;20238;-78
2022/10/21 10:21:19;;;;;;;7.30;3.50;;;;;;;22.63;59.83;98402.03;6920486;28;20262;-78
2022/10/21 10:24:44;;;;;;;7.23;3.63;;;;;;;22.66;60.01;98401.44;6920627;28;20224;-77
2022/10/21 10:28:20;;;;;;;6.70;3.33;;;;;;;22.75;59.32;98396.97;6920368;28;20250;-78
2022/10/21 10:31:46;;;;;;;5.33;3.53;;;;;;;22.70;59.92;98409.94;6920240;28;20317;-78
2022/10/21 10:35:21;;;;;;;4.40;3.00;;;;;;;22.01;60.25;98409.53;6920684;28;20200;-77
2022/10/21 10:38:51;;;;;;;8.60;3.43;;;;;;;22.61;58.33;98397.94;6920408;28;20257;-77
2022/10/21 10:42:16;;;;;;;6.93;3.03;;;;;;;22.75;58.43;98405.19;6920626;28;20840;-77
2022/10/21 10:45:37;;;;;;;6.27;2.90;;;;;;;22.52;58.99;98405.19;6920694;28;20237;-78
2022/10/21 10:49:04;;;;;;;6.63;3.37;;;;;;;22.49;58.11;98423.06;6919862;28;20212;-77
2022/10/21 10:52:27;;;;;;;4.30;3.00;;;;;;;22.44;58.60;98416.81;6920505;28;20236;-78
2022/10/21 10:55:53;;;;;;;4.80;3.13;;;;;;;22.32;59.39;98408.13;6920147;28;20214;-77
2022/10/21 10:59:20;;;;;;;5.40;3.43;;;;;;;22.48;59.13;98418.69;6919627;28;20274;-77
2022/10/21 11:02:48;;;;;;;5.33;2.90;;;;;;;21.67;59.61;98404.00;6920610;28;20288;-78
2022/10/21 11:06:14;;;;;;;5.33;3.30;;;;;;;21.96;59.54;98407.63;6926520;28;20235;-78
2022/10/21 11:09:37;;;;;;;6.20;3.03;;;;;;;21.97;59.44;98406.53;6918948;28;20232;-78
2022/10/21 11:13:00;;;;;;;5.80;2.67;;;;;;;21.94;58.93;98409.84;6918795;28;20211;-78
2022/10/21 11:16:34;;;;;;;6.10;2.83;;;;;;;22.23;59.05;98405.19;6898989;28;20213;-78
2022/10/21 11:19:59;;;;;;;4.37;2.70;;;;;;;22.41;57.98;98406.34;6892170;28;20264;-78
2022/10/21 11:23:36;;;;;;;5.00;2.80;;;;;;;21.97;58.88;98384.56;6893715;28;20641;-79
2022/10/21 11:27:03;;;;;;;5.80;3.27;;;;;;;22.47;58.39;98413.47;6893909;28;20248;-78
2022/10/21 11:30:32;;;;;;;9.50;3.30;;;;;;;22.85;57.46;98404.25;6911547;28;20316;-79
2022/10/21 11:33:56;;;;;;;9.07;3.67;;;;;;;23.29;56.38;98407.53;6908441;28;20338;-79
2022/10/21 11:37:25;;;;;;;4.80;2.50;;;;;;;23.00;57.39;98418.63;6937577;28;20257;-80
2022/10/21 11:40:48;;;;;;;6.40;2.83;;;;;;;23.14;56.32;98416.78;6911285;28;20274;-80
2022/10/21 11:44:16;;;;;;;8.13;2.87;;;;;;;23.22;56.36;98404.34;6919190;28;20306;-79
2022/10/21 11:47:43;;;;;;;3.67;2.60;;;;;;;23.19;56.00;98400.25;6897678;28;20207;-78
2022/10/21 11:51:11;;;;;;;7.07;2.60;;;;;;;23.64;55.08;98393.25;6916091;28;20234;-77
2022/10/21 11:54:44;;;;;;;3.50;2.40;;;;;;;23.52;54.16;98398.41;6919024;28;20270;-77
2022/10/21 11:58:24;;;;;;;4.27;2.83;;;;;;;23.53;55.11;98378.84;6929487;28;20228;-77
2022/10/21 12:01:52;;;;;;;3.97;2.60;;;;;;;23.89;53.28;98395.66;6918586;28;20330;-77
2022/10/21 12:05:23;;;;;;;6.10;2.30;;;;;;;23.37;54.16;98369.19;6911021;28;20289;-77
2022/10/21 12:08:51;;;;;;;3.43;2.07;;;;;;;22.75;56.41;98393.38;6891376;28;20281;-78
2022/10/21 12:12:15;;;;;;;3.57;2.33;;;;;;;23.07;57.03;98385.28;6892960;28;20225;-77
2022/10/21 12:15:40;;;;;;;3.90;2.17;;;;;;;23.47;54.94;98377.28;6892363;28;20207;-77
2022/10/21 12:19:05;;;;;;;3.47;2.33;;;;;;;23.80;53.85;98389.16;6890737;28;20208;-78
2022/10/21 12:22:29;;;;;;;5.33;2.20;;;;;;;23.75;53.96;98384.56;6891552;28;20681;-77
2022/10/21 12:26:03;;;;;;;4.00;2.07;;;;;;;23.48;54.20;98386.38;6933127;28;20261;-78
2022/10/21 12:29:35;;;;;;;5.17;2.30;;;;;;;23.21;54.56;98397.22;6923477;28;20302;-77
2022/10/21 12:33:14;;;;;;;4.57;1.97;;;;;;;23.00;54.86;98406.81;6912269;28;20648;-78
2022/10/21 12:36:44;;;;;;;4.57;2.00;;;;;;;23.15;54.65;98396.44;6923565;28;20288;-77
2022/10/21 12:40:12;;;;;;;2.83;1.97;;;;;;;23.02;55.14;98383.41;6921859;28;20221;-78
2022/10/21 12:43:33;;;;;;;3.90;2.77;;;;;;;23.43;54.74;98389.19;6922508;28;20304;-77
2022/10/21 12:46:56;;;;;;;6.20;2.20;;;;;;;22.95;55.71;98401.41;6922703;28;20693;-77
2022/10/21 12:50:25;;;;;;;2.63;2.00;;;;;;;23.14;54.87;98394.78;6921580;28;20249;-77
2022/10/21 12:53:49;;;;;;;2.90;2.20;;;;;;;22.89;54.83;98394.31;6922985;28;20283;-79
2022/10/21 12:57:22;;;;;;;4.40;2.10;;;;;;;23.59;53.95;98399.69;6923187;28;20363;-77
2022/10/21 13:00:55;;;;;;;4.47;2.50;;;;;;;23.20;54.74;98407.38;6922097;28;20282;-77
2022/10/21 13:04:46;;;;;;;3.77;2.37;;;;;;;23.05;55.50;98404.81;6896267;28;20368;-77
2022/10/21 13:08:15;;;;;;;3.30;2.90;;;;;;;23.34;55.17;98396.47;6912938;28;20200;-77
2022/10/21 13:11:40;;;;;;;2.87;2.10;;;;;;;23.54;55.17;98402.50;6903958;28;20219;-77
2022/10/21 13:15:04;;;;;;;2.73;1.80;;;;;;;22.67;56.55;98397.59;6899367;28;20225;-77
2022/10/21 13:18:51;;;;;;;3.20;2.13;;;;;;;23.19;56.65;98396.72;6921475;28;20218;-77
2022/10/21 13:22:15;;;;;;;2.73;1.83;;;;;;;23.36;55.47;98378.56;6920755;28;20306;-77
2022/10/21 13:25:37;;;;;;;4.13;2.10;;;;;;;23.44;55.66;98402.66;6897155;28;20283;-77
2022/10/21 13:29:05;;;;;;;5.13;1.80;;;;;;;23.32;55.48;98395.97;6894452;28;20742;-77
2022/10/21 13:32:28;;;;;;;2.80;1.97;;;;;;;22.95;56.88;98398.66;6895251;28;20315;-77
2022/10/21 13:35:52;;;;;;;2.17;1.80;;;;;;;22.94;56.30;98372.22;6894721;28;20291;-77
2022/10/21 13:39:23;;;;;;;4.73;1.90;;;;;;;22.93;56.65;98396.19;6897582;28;20203;-77
2022/10/21 13:42:49;;;;;;;2.97;2.07;;;;;;;22.78;57.07;98387.31;6920811;28;20701;-78
2022/10/21 13:46:15;;;;;;;2.30;1.70;;;;;;;22.61;57.78;98396.00;6920856;28;20366;-79
2022/10/21 13:49:39;;;;;;;3.50;1.70;;;;;;;22.40;57.94;98386.34;6921823;28;20319;-79
2022/10/21 13:53:02;;;;;;;2.87;1.90;;;;;;;21.71;59.69;98380.38;6902380;28;20219;-78
2022/10/21 13:56:26;;;;;;;3.23;2.47;;;;;;;21.53;60.78;98381.03;6894635;28;20209;-78
2022/10/21 13:59:59;;;;;;;5.00;1.90;;;;;;;21.40;61.32;98365.22;6894789;28;20705;-78
2022/10/21 14:03:24;;;;;;;3.67;1.80;;;;;;;21.08;62.58;98369.56;6895025;28;20717;-78
2022/10/21 14:06:48;;;;;;;3.17;1.80;;;;;;;20.98;62.87;98377.81;6894244;28;20204;-78
2022/10/21 14:10:15;;;;;;;3.43;1.70;;;;;;;21.14;62.37;98382.13;6917439;28;20354;-78
2022/10/21 14:13:37;;;;;;;3.77;2.67;;;;;;;21.36;61.53;98375.13;6920180;28;20190;-79
2022/10/21 14:17:00;;;;;;;1.70;1.60;;;;;;;21.09;61.73;98352.00;6922045;28;20368;-78
2022/10/21 14:20:26;;;;;;;2.17;1.80;;;;;;;21.34;60.94;98340.84;6911469;28;20275;-78
2022/10/21 14:23:48;;;;;;;4.33;1.90;;;;;;;21.27;61.69;98370.53;6892801;28;20217;-79
2022/10/21 14:27:11;;;;;;;2.83;1.60;;;;;;;21.17;61.55;98346.75;6893627;28;20235;-78
2022/10/21 14:30:35;;;;;;;1.90;1.77;;;;;;;21.13;62.18;98357.72;6892546;28;20363;-78
2022/10/21 14:33:57;;;;;;;2.33;1.50;;;;;;;21.22;61.83;98347.81;6901135;28;20620;-78
2022/10/21 14:37:20;;;;;;;4.03;1.80;;;;;;;21.29;61.96;98341.72;6903143;28;20207;-78
2022/10/21 14:40:42;;;;;;;2.80;1.67;;;;;;;21.05;62.19;98345.44;6893337;28;20363;-79
2022/10/21 14:44:09;;;;;;;2.50;1.60;;;;;;;21.25;61.58;98342.59;6908714;28;20232;-79
2022/10/21 14:47:30;;;;;;;3.93;1.80;;;;;;;21.47;60.61;98335.56;6920249;28;20207;-78
2022/10/21 14:50:54;;;;;;;4.90;1.90;;;;;;;21.38;60.82;98347.41;6919202;28;20277;-78
2022/10/21 14:54:25;;;;;;;2.30;1.63;;;;;;;21.71;59.72;98341.97;6920374;28;20208;-80
2022/10/21 14:57:47;;;;;;;2.03;1.80;;;;;;;21.72;59.45;98349.09;6918913;28;20192;-78
2022/10/21 15:01:13;;;;;;;3.07;1.80;;;;;;;21.72;59.25;98346.34;6917929;28;20663;-78
2022/10/21 15:04:43;;;;;;;2.80;1.60;;;;;;;21.62;59.36;98351.91;6917700;28;20344;-78
2022/10/21 15:08:24;;;;;;;1.73;1.30;;;;;;;21.40;58.79;98362.50;6920206;28;20622;-78
2022/10/21 15:11:47;;;;;;;3.40;1.57;;;;;;;21.68;58.24;98370.00;6920194;28;20708;-78
2022/10/21 15:15:43;;;;;;;1.57;1.37;;;;;;;20.95;59.64;98355.66;6920135;28;20335;-78
2022/10/21 15:19:08;;;;;;;2.50;1.50;;;;;;;21.44;59.20;98354.50;6910916;28;20307;-78
2022/10/21 15:22:33;;;;;;;4.57;1.43;;;;;;;21.74;58.30;98357.88;6892540;28;20263;-78
2022/10/21 15:25:56;;;;;;;2.23;1.40;;;;;;;21.59;58.65;98343.44;6934659;28;20238;-78
2022/10/21 15:29:26;;;;;;;3.87;1.57;;;;;;;21.76;57.62;98325.47;6946476;28;20308;-79
2022/10/21 15:32:48;;;;;;;2.40;1.60;;;;;;;21.46;58.50;98349.53;6932969;28;20196;-78
2022/10/21 15:36:11;;;;;;;2.07;1.50;;;;;;;20.29;61.45;98324.94;6892712;28;20347;-79
2022/10/21 15:39:33;;;;;;;4.47;1.80;;;;;;;21.33;58.67;98342.81;6892749;28;20259;-79
2022/10/21 15:42:55;;;;;;;2.77;1.70;;;;;;;21.46;57.96;98341.31;6892998;28;20244;-78
2022/10/21 15:46:18;;;;;;;1.80;1.23;;;;;;;21.53;56.71;98350.06;6890949;28;20232;-80
2022/10/21 15:49:41;;;;;;;2.33;1.40;;;;;;;21.38;56.06;98348.25;6892233;28;20256;-77
2022/10/21 15:53:02;;;;;;;1.30;1.20;;;;;;;21.67;56.09;98349.13;6892519;28;20236;-77